Time;durP1;ratioP1;P1;durP2;ratioP2;P2;SDS_P1;SDS_P2;PMS_P1;PMS_P2;Temp;Humidity;BMP_temperature;BMP_pressure;BME280_temperature;BME280_humidity;BME280_pressure;Samples;Min_cycle;Max_cycle;Signal;HPM_P1;HPM_P2
2021/12/13 00:02:26;;;;;;;20.57;13.40;;;;;;;4.91;100.00;101874.09;5037762;28;20239;-57
2021/12/13 00:05:02;;;;;;;18.60;13.10;;;;;;;4.83;100.00;101879.81;5043358;28;20240;-56
2021/12/13 00:07:30;;;;;;;17.17;13.10;;;;;;;4.91;100.00;101875.81;5032786;28;20231;-56
2021/12/13 00:09:59;;;;;;;17.30;12.87;;;;;;;5.04;100.00;101875.47;5043499;28;20333;-55
2021/12/13 00:12:29;;;;;;;19.40;13.97;;;;;;;4.94;100.00;101871.59;5038297;28;20565;-57
2021/12/13 00:14:57;;;;;;;16.37;12.03;;;;;;;4.97;100.00;101876.06;5035755;28;20246;-56
2021/12/13 00:17:28;;;;;;;18.07;13.07;;;;;;;4.98;100.00;101881.34;5039446;28;20309;-56
2021/12/13 00:19:59;;;;;;;18.30;13.03;;;;;;;5.14;100.00;101871.53;5035694;28;20252;-56
2021/12/13 00:22:28;;;;;;;17.60;12.50;;;;;;;5.15;100.00;101884.59;5039953;28;20235;-56
2021/12/13 00:25:02;;;;;;;15.17;12.83;;;;;;;5.05;100.00;101885.03;5035337;28;20262;-56
2021/12/13 00:27:30;;;;;;;17.53;12.43;;;;;;;5.06;100.00;101879.03;5046945;28;20235;-56
2021/12/13 00:30:00;;;;;;;17.63;13.50;;;;;;;5.11;100.00;101882.69;5045180;28;20286;-55
2021/12/13 00:32:32;;;;;;;16.27;12.37;;;;;;;5.08;100.00;101881.69;5041677;28;20674;-54
2021/12/13 00:35:02;;;;;;;16.10;12.63;;;;;;;5.21;100.00;101884.84;5050616;28;20273;-55
2021/12/13 00:37:31;;;;;;;20.60;12.87;;;;;;;5.16;100.00;101889.00;5037919;28;20232;-55
2021/12/13 00:40:00;;;;;;;17.67;13.57;;;;;;;5.10;100.00;101885.25;5038836;28;20228;-56
2021/12/13 00:42:30;;;;;;;15.13;11.73;;;;;;;5.10;100.00;101886.13;5039423;28;20237;-56
2021/12/13 00:44:57;;;;;;;16.03;12.37;;;;;;;5.16;100.00;101882.88;5030691;28;20239;-57
2021/12/13 00:47:27;;;;;;;18.70;12.70;;;;;;;5.18;100.00;101889.03;5041840;28;20655;-56
2021/12/13 00:49:56;;;;;;;17.80;13.67;;;;;;;5.25;100.00;101885.84;5039939;28;20301;-56
2021/12/13 00:52:25;;;;;;;16.47;13.07;;;;;;;5.27;100.00;101892.00;5039549;28;20516;-55
2021/12/13 00:54:53;;;;;;;17.90;13.50;;;;;;;5.26;100.00;101898.94;5041500;28;20329;-56
2021/12/13 00:57:38;;;;;;;15.00;11.67;;;;;;;5.16;100.00;101909.81;5035774;28;20318;-56
2021/12/13 01:00:10;;;;;;;18.47;13.37;;;;;;;5.20;100.00;101909.09;5033600;28;20250;-56
2021/12/13 01:02:40;;;;;;;18.57;13.13;;;;;;;5.26;100.00;101909.34;5038939;28;20224;-56
2021/12/13 01:05:09;;;;;;;18.00;12.90;;;;;;;5.15;100.00;101912.34;5038843;28;20234;-56
2021/12/13 01:08:03;;;;;;;17.03;13.53;;;;;;;5.14;100.00;101927.06;5040329;28;20251;-56
2021/12/13 01:10:51;;;;;;;18.43;12.50;;;;;;;5.15;100.00;101922.75;5045404;28;20302;-56
2021/12/13 01:13:21;;;;;;;21.60;13.63;;;;;;;5.12;100.00;101922.63;5028742;28;20278;-56
2021/12/13 01:15:55;;;;;;;17.43;12.90;;;;;;;5.21;100.00;101926.50;5044023;28;20227;-56
2021/12/13 01:18:29;;;;;;;18.03;13.60;;;;;;;5.25;100.00;101928.38;5038292;28;20245;-56
2021/12/13 01:21:03;;;;;;;19.23;13.73;;;;;;;5.19;100.00;101935.06;5046361;28;20232;-55
2021/12/13 01:23:42;;;;;;;18.30;14.30;;;;;;;5.19;100.00;101928.13;5040530;28;20278;-56
2021/12/13 01:26:34;;;;;;;17.13;12.73;;;;;;;5.21;100.00;101936.91;5044153;28;21087;-55
2021/12/13 01:29:06;;;;;;;19.30;13.43;;;;;;;5.15;100.00;101935.78;5038747;28;20707;-56
2021/12/13 01:31:36;;;;;;;16.87;12.83;;;;;;;5.24;100.00;101939.63;5034363;28;20252;-56
2021/12/13 01:34:05;;;;;;;18.60;13.03;;;;;;;5.23;100.00;101943.09;5036320;28;20287;-56
2021/12/13 01:36:41;;;;;;;18.63;13.93;;;;;;;5.25;100.00;101938.81;5042801;28;20236;-56
2021/12/13 01:39:12;;;;;;;20.43;14.43;;;;;;;5.29;100.00;101944.13;5035806;28;20235;-56
2021/12/13 01:41:41;;;;;;;21.03;13.20;;;;;;;5.25;100.00;101943.13;5043789;28;20238;-56
2021/12/13 01:44:11;;;;;;;17.73;13.73;;;;;;;5.29;100.00;101946.75;5044225;28;20301;-56
2021/12/13 01:46:40;;;;;;;17.77;12.20;;;;;;;5.27;100.00;101938.88;5043706;28;20269;-56
2021/12/13 01:49:08;;;;;;;18.10;13.83;;;;;;;5.18;100.00;101949.78;5043336;28;20235;-56
2021/12/13 01:51:36;;;;;;;21.33;12.93;;;;;;;5.23;100.00;101950.00;5046555;28;20255;-56
2021/12/13 01:54:06;;;;;;;16.37;12.43;;;;;;;5.23;100.00;101945.69;5033452;28;20220;-56
2021/12/13 01:56:41;;;;;;;20.33;15.00;;;;;;;5.27;100.00;101946.69;5038861;28;20232;-56
2021/12/13 01:59:28;;;;;;;21.40;13.43;;;;;;;5.22;100.00;101941.28;5031594;28;20239;-56
2021/12/13 02:01:57;;;;;;;16.90;12.90;;;;;;;5.22;100.00;101948.19;5040985;28;20236;-58
2021/12/13 02:04:24;;;;;;;19.47;14.27;;;;;;;5.20;100.00;101949.88;5040104;28;20239;-56
2021/12/13 02:06:52;;;;;;;23.93;14.27;;;;;;;5.17;100.00;101957.56;5042042;28;20302;-56
2021/12/13 02:09:22;;;;;;;20.77;14.03;;;;;;;5.18;100.00;101961.94;5032601;28;20263;-56
2021/12/13 02:11:53;;;;;;;20.43;13.70;;;;;;;5.21;100.00;101957.72;5042361;28;20260;-56
2021/12/13 02:14:21;;;;;;;22.53;14.20;;;;;;;5.28;100.00;101955.38;5035380;28;20377;-56
2021/12/13 02:16:58;;;;;;;20.70;14.40;;;;;;;5.19;100.00;101948.97;5035828;28;21053;-56
2021/12/13 02:19:33;;;;;;;21.33;13.37;;;;;;;5.18;100.00;101952.41;5033759;28;20562;-56
2021/12/13 02:22:32;;;;;;;21.13;14.20;;;;;;;5.25;100.00;101950.94;5033692;28;20235;-56
2021/12/13 02:25:01;;;;;;;18.37;14.33;;;;;;;5.17;100.00;101952.34;5020525;28;20678;-55
2021/12/13 02:27:32;;;;;;;20.70;14.10;;;;;;;5.22;100.00;101956.00;5020639;28;20248;-55
2021/12/13 02:30:04;;;;;;;21.80;14.47;;;;;;;5.15;100.00;101954.88;5025583;28;20236;-56
2021/12/13 02:32:35;;;;;;;16.30;11.97;;;;;;;5.20;100.00;101957.69;5027404;28;20378;-56
2021/12/13 02:35:04;;;;;;;20.53;14.03;;;;;;;5.20;100.00;101957.69;5042710;28;20282;-56
2021/12/13 02:37:32;;;;;;;20.50;13.30;;;;;;;5.21;100.00;101957.72;5036315;28;20291;-55
2021/12/13 02:39:59;;;;;;;20.63;13.83;;;;;;;5.17;100.00;101962.75;5037716;28;20244;-55
2021/12/13 02:42:26;;;;;;;17.07;12.67;;;;;;;5.22;100.00;101959.50;5039358;28;20232;-56
2021/12/13 02:45:01;;;;;;;18.87;13.73;;;;;;;5.24;100.00;101962.19;5030309;28;20243;-56
2021/12/13 02:47:30;;;;;;;22.13;14.63;;;;;;;5.32;100.00;101959.88;5038092;28;20256;-56
2021/12/13 02:49:57;;;;;;;18.90;13.67;;;;;;;5.29;100.00;101959.75;5027235;28;20256;-55
2021/12/13 02:52:25;;;;;;;20.33;13.33;;;;;;;5.29;100.00;101964.97;5035701;28;20331;-56
2021/12/13 02:54:56;;;;;;;20.60;13.87;;;;;;;5.30;100.00;101956.31;5039761;28;20239;-55
2021/12/13 02:57:24;;;;;;;16.93;11.47;;;;;;;5.24;100.00;101960.47;5036185;28;20599;-56
2021/12/13 02:59:55;;;;;;;19.83;13.33;;;;;;;5.21;100.00;101956.84;5038900;28;20259;-56
2021/12/13 03:02:24;;;;;;;17.13;11.53;;;;;;;5.20;100.00;101965.50;5040739;28;20252;-56
2021/12/13 03:04:51;;;;;;;20.93;13.47;;;;;;;5.20;100.00;101955.97;5032011;28;20247;-55
2021/12/13 03:07:21;;;;;;;18.37;12.40;;;;;;;5.22;100.00;101964.72;5040900;28;20393;-56
2021/12/13 03:09:51;;;;;;;22.13;12.10;;;;;;;5.29;100.00;101967.56;5039707;28;20252;-56
2021/12/13 03:12:20;;;;;;;21.50;13.23;;;;;;;5.26;100.00;101971.84;5042355;28;20240;-56
2021/12/13 03:14:49;;;;;;;16.33;11.73;;;;;;;5.26;100.00;101968.31;5041436;28;20228;-56
2021/12/13 03:17:19;;;;;;;19.83;12.63;;;;;;;5.28;100.00;101969.28;5041818;28;20803;-56
2021/12/13 03:19:55;;;;;;;19.20;11.80;;;;;;;5.34;100.00;101968.66;5040996;28;20229;-56
2021/12/13 03:22:42;;;;;;;21.00;12.73;;;;;;;5.33;100.00;101972.94;5048273;28;20259;-56
2021/12/13 03:25:13;;;;;;;24.20;14.87;;;;;;;5.33;100.00;101972.06;5031572;28;20235;-56
2021/12/13 03:27:53;;;;;;;19.53;13.27;;;;;;;5.37;100.00;101973.97;5043153;28;20314;-56
2021/12/13 03:30:23;;;;;;;17.03;11.80;;;;;;;5.35;100.00;101976.53;5041719;28;20267;-56
2021/12/13 03:32:55;;;;;;;18.77;11.17;;;;;;;5.38;100.00;101970.56;5043191;28;20311;-56
2021/12/13 03:35:32;;;;;;;17.93;11.43;;;;;;;5.38;100.00;101980.97;5042750;28;20591;-56
2021/12/13 03:38:04;;;;;;;17.03;10.37;;;;;;;5.38;100.00;101986.19;5039208;28;20267;-56
2021/12/13 03:40:32;;;;;;;20.43;12.77;;;;;;;5.44;100.00;101975.97;5032954;28;20252;-56
2021/12/13 03:43:04;;;;;;;21.60;14.23;;;;;;;5.28;100.00;101978.81;5040875;28;20953;-55
2021/12/13 03:45:34;;;;;;;21.10;12.70;;;;;;;5.28;100.00;101974.50;5036832;28;20275;-56
2021/12/13 03:48:03;;;;;;;23.90;13.67;;;;;;;5.33;100.00;101977.28;5034557;28;20314;-56
2021/12/13 03:50:43;;;;;;;19.40;13.30;;;;;;;5.28;100.00;101978.81;5033158;28;20260;-55
2021/12/13 03:53:19;;;;;;;15.77;10.67;;;;;;;5.29;100.00;101985.78;5043718;28;20236;-56
2021/12/13 03:55:48;;;;;;;23.93;14.07;;;;;;;5.22;100.00;101985.53;5035763;28;20255;-56
2021/12/13 03:58:19;;;;;;;24.33;14.37;;;;;;;5.25;100.00;101984.78;5038111;28;20269;-56
2021/12/13 04:00:48;;;;;;;25.63;12.63;;;;;;;5.26;100.00;101995.28;5035897;28;20256;-56
2021/12/13 04:03:17;;;;;;;21.87;13.50;;;;;;;5.23;100.00;101996.88;5038433;28;20322;-56
2021/12/13 04:05:44;;;;;;;20.67;13.47;;;;;;;5.26;100.00;101989.16;5043364;28;20401;-56
2021/12/13 04:08:13;;;;;;;18.20;10.97;;;;;;;5.24;100.00;101989.09;5042156;28;20255;-56
2021/12/13 04:10:43;;;;;;;16.47;11.20;;;;;;;5.26;100.00;101994.38;5038863;28;20245;-56
2021/12/13 04:13:13;;;;;;;22.60;12.33;;;;;;;5.26;100.00;101997.88;5043537;28;20240;-56
2021/12/13 04:15:55;;;;;;;26.47;13.83;;;;;;;5.24;100.00;101996.91;5036204;28;20224;-56
2021/12/13 04:18:40;;;;;;;22.17;12.73;;;;;;;5.20;100.00;102007.16;5038614;28;20371;-56
2021/12/13 04:21:08;;;;;;;24.17;12.60;;;;;;;5.21;100.00;102003.72;5033949;28;20219;-56
2021/12/13 04:23:36;;;;;;;21.30;12.60;;;;;;;5.26;100.00;102004.78;5041821;28;20232;-56
2021/12/13 04:26:07;;;;;;;23.90;12.50;;;;;;;5.21;100.00;102002.00;5042051;28;20232;-55
2021/12/13 04:28:36;;;;;;;19.40;12.37;;;;;;;5.22;100.00;102001.16;5042736;28;20893;-56
2021/12/13 04:31:05;;;;;;;21.80;11.70;;;;;;;5.23;100.00;102002.97;5037087;28;20260;-56
2021/12/13 04:33:35;;;;;;;21.17;12.33;;;;;;;5.22;100.00;102006.38;5039069;28;20318;-56
2021/12/13 04:36:06;;;;;;;24.47;12.50;;;;;;;5.22;100.00;102001.16;5038055;28;20644;-57
2021/12/13 04:38:39;;;;;;;19.80;11.23;;;;;;;5.23;100.00;102005.56;5039185;28;20698;-56
2021/12/13 04:41:07;;;;;;;24.13;12.53;;;;;;;5.17;100.00;102002.69;5038134;28;20586;-56
2021/12/13 04:43:36;;;;;;;25.57;13.00;;;;;;;5.19;100.00;102000.16;5044285;28;20228;-56
2021/12/13 04:46:05;;;;;;;21.20;11.80;;;;;;;5.20;100.00;102002.84;5042394;28;20228;-56
2021/12/13 04:48:35;;;;;;;26.17;12.63;;;;;;;5.17;100.00;102010.50;5030250;28;20229;-56
2021/12/13 04:51:05;;;;;;;21.87;10.40;;;;;;;5.22;100.00;102010.69;5036773;28;20632;-56
2021/12/13 04:53:35;;;;;;;23.33;13.03;;;;;;;5.19;100.00;102006.25;5047110;28;20286;-56
2021/12/13 04:56:06;;;;;;;28.50;14.30;;;;;;;5.23;100.00;102002.97;5044485;28;20278;-56
2021/12/13 04:58:33;;;;;;;25.80;14.93;;;;;;;5.19;100.00;102003.63;5044800;28;20255;-56
2021/12/13 05:01:04;;;;;;;19.67;11.57;;;;;;;5.17;100.00;102001.81;5044130;28;20298;-56
2021/12/13 05:03:36;;;;;;;24.07;12.30;;;;;;;5.24;100.00;101999.53;5044627;28;20255;-56
2021/12/13 05:06:06;;;;;;;23.53;13.13;;;;;;;5.22;100.00;102008.97;5046001;28;20228;-56
2021/12/13 05:08:32;;;;;;;28.97;13.47;;;;;;;5.29;100.00;102009.22;5044769;28;20255;-56
2021/12/13 05:11:03;;;;;;;25.17;12.03;;;;;;;5.20;100.00;102015.84;5030820;28;20331;-56
2021/12/13 05:13:30;;;;;;;20.13;10.93;;;;;;;5.19;100.00;102016.66;5037633;28;20744;-56
2021/12/13 05:15:59;;;;;;;23.67;13.23;;;;;;;5.20;100.00;102013.25;5028388;28;20768;-56
2021/12/13 05:18:28;;;;;;;22.87;10.50;;;;;;;5.23;100.00;102013.38;5040897;28;20240;-55
2021/12/13 05:21:03;;;;;;;29.83;12.43;;;;;;;5.21;100.00;102012.41;5046333;28;20236;-56
2021/12/13 05:23:31;;;;;;;17.57;10.03;;;;;;;5.22;100.00;102015.91;5040411;28;20257;-55
2021/12/13 05:25:59;;;;;;;22.67;11.00;;;;;;;5.22;100.00;102023.72;5038656;28;20842;-55
2021/12/13 05:28:28;;;;;;;27.00;11.47;;;;;;;5.24;100.00;102020.34;5040946;28;20511;-55
2021/12/13 05:30:59;;;;;;;21.73;12.47;;;;;;;5.28;100.00;102023.97;5023970;22;20272;-51
2021/12/13 05:33:28;;;;;;;23.07;11.27;;;;;;;5.28;100.00;102020.47;5005266;28;21674;-52
2021/12/13 05:35:57;;;;;;;14.83;8.90;;;;;;;5.29;100.00;102022.25;5005073;28;20233;-52
2021/12/13 05:38:30;;;;;;;18.70;9.93;;;;;;;5.34;100.00;102025.94;5005006;28;20234;-52
2021/12/13 05:40:59;;;;;;;23.00;12.57;;;;;;;5.38;100.00;102023.53;5006000;28;20237;-51
2021/12/13 05:43:29;;;;;;;19.90;10.33;;;;;;;5.43;100.00;102031.50;5005746;28;20237;-54
2021/12/13 05:46:00;;;;;;;20.17;9.77;;;;;;;5.42;100.00;102041.06;5009994;28;21429;-52
2021/12/13 05:48:40;;;;;;;20.23;10.73;;;;;;;5.43;100.00;102036.72;5005804;28;20330;-51
2021/12/13 05:51:08;;;;;;;24.83;12.07;;;;;;;5.42;100.00;102042.78;5003336;28;20938;-50
2021/12/13 05:53:38;;;;;;;22.37;10.20;;;;;;;5.45;100.00;102040.28;5002368;28;20262;-51
2021/12/13 05:56:08;;;;;;;21.70;10.77;;;;;;;5.41;100.00;102044.50;5003761;28;20257;-52
2021/12/13 05:58:42;;;;;;;21.60;9.97;;;;;;;5.42;100.00;102053.19;5006740;28;20287;-52
2021/12/13 06:01:14;;;;;;;21.37;10.93;;;;;;;5.42;100.00;102048.88;5005358;28;20257;-49
2021/12/13 06:03:44;;;;;;;23.97;10.93;;;;;;;5.46;100.00;102049.88;5006701;28;20670;-51
2021/12/13 06:06:14;;;;;;;23.00;11.77;;;;;;;5.45;100.00;102055.91;5005146;28;20284;-52
2021/12/13 06:08:48;;;;;;;29.17;11.47;;;;;;;5.45;100.00;102049.00;5005599;28;20232;-50
2021/12/13 06:11:18;;;;;;;24.43;10.27;;;;;;;5.55;100.00;102057.19;5004794;28;20237;-51
2021/12/13 06:13:57;;;;;;;23.93;12.40;;;;;;;5.47;100.00;102060.34;5005368;28;20264;-52
2021/12/13 06:16:43;;;;;;;36.30;14.03;;;;;;;5.52;100.00;102055.34;5006495;28;20261;-52
2021/12/13 06:19:15;;;;;;;31.53;12.90;;;;;;;5.49;100.00;102057.81;4998826;28;20768;-52
2021/12/13 06:21:50;;;;;;;25.33;11.80;;;;;;;5.49;100.00;102063.03;5004451;28;20302;-51
2021/12/13 06:24:26;;;;;;;19.07;10.00;;;;;;;5.47;100.00;102056.84;5004009;28;20228;-54
2021/12/13 06:27:01;;;;;;;25.97;10.90;;;;;;;5.46;100.00;102062.91;5007310;28;20619;-51
2021/12/13 06:29:42;;;;;;;27.17;11.07;;;;;;;5.45;100.00;102062.00;5005648;28;21089;-48
2021/12/13 06:32:22;;;;;;;23.27;10.47;;;;;;;5.44;100.00;102069.75;4998912;28;20311;-52
2021/12/13 06:34:48;;;;;;;23.43;11.27;;;;;;;5.47;100.00;102069.88;5005528;28;20310;-51
2021/12/13 06:37:14;;;;;;;19.83;9.43;;;;;;;5.50;100.00;102076.09;5005284;28;20269;-52
2021/12/13 06:39:42;;;;;;;30.33;13.53;;;;;;;5.49;100.00;102076.94;5005356;28;20834;-51
2021/12/13 06:42:13;;;;;;;26.50;12.30;;;;;;;5.48;100.00;102087.31;5004270;28;20249;-53
2021/12/13 06:44:41;;;;;;;26.43;11.23;;;;;;;5.50;100.00;102076.09;5006352;28;20244;-50
2021/12/13 06:47:11;;;;;;;27.17;12.50;;;;;;;5.49;100.00;102078.66;5004498;28;20245;-53
2021/12/13 06:49:40;;;;;;;25.23;12.53;;;;;;;5.45;100.00;102084.56;4997500;28;20236;-52
2021/12/13 06:52:09;;;;;;;29.23;12.30;;;;;;;5.46;100.00;102087.22;4997796;28;20260;-53
2021/12/13 06:54:38;;;;;;;33.67;13.27;;;;;;;5.40;100.00;102092.16;5004605;28;20240;-52
2021/12/13 06:57:10;;;;;;;30.57;13.53;;;;;;;5.39;100.00;102093.00;5013778;28;20249;-50
2021/12/13 06:59:39;;;;;;;30.67;12.30;;;;;;;5.41;100.00;102096.56;5011992;28;20702;-52
2021/12/13 07:02:12;;;;;;;27.33;11.73;;;;;;;5.44;100.00;102106.22;5004508;28;20256;-51
2021/12/13 07:04:52;;;;;;;25.53;12.43;;;;;;;5.50;100.00;102109.09;5013607;28;20847;-53
2021/12/13 07:07:20;;;;;;;29.60;12.60;;;;;;;5.46;100.00;102108.06;5010295;28;20240;-53
2021/12/13 07:09:51;;;;;;;36.27;13.63;;;;;;;5.41;100.00;102111.31;5018214;28;20234;-50
2021/12/13 07:12:19;;;;;;;21.57;11.20;;;;;;;5.37;100.00;102112.00;5001081;28;20745;-53
2021/12/13 07:14:46;;;;;;;27.63;12.83;;;;;;;5.35;100.00;102103.25;5004809;28;20237;-51
2021/12/13 07:17:15;;;;;;;28.17;11.90;;;;;;;5.41;100.00;102108.72;5008369;28;20682;-50
2021/12/13 07:19:45;;;;;;;26.53;12.63;;;;;;;5.38;100.00;102100.78;5004877;28;20279;-51
2021/12/13 07:22:19;;;;;;;28.83;12.73;;;;;;;5.47;100.00;102111.56;5005017;28;20237;-53
2021/12/13 07:24:47;;;;;;;26.90;12.60;;;;;;;5.45;100.00;102108.00;5002058;28;20240;-51
2021/12/13 07:27:16;;;;;;;24.87;11.13;;;;;;;5.45;100.00;102121.03;5004243;28;20237;-50
2021/12/13 07:29:48;;;;;;;27.50;11.73;;;;;;;5.45;100.00;102123.63;5004715;28;20237;-52
2021/12/13 07:32:18;;;;;;;31.60;13.17;;;;;;;5.42;100.00;102123.50;5006320;28;20729;-52
2021/12/13 07:34:56;;;;;;;30.30;13.10;;;;;;;5.44;100.00;102133.16;5019920;28;20248;-52
2021/12/13 07:37:41;;;;;;;30.57;13.50;;;;;;;5.55;100.00;102140.56;5032977;28;20237;-53
2021/12/13 07:40:31;;;;;;;26.00;11.67;;;;;;;5.45;100.00;102136.66;5027452;28;20263;-53
2021/12/13 07:43:17;;;;;;;25.17;12.03;;;;;;;5.47;100.00;102145.41;5006133;28;20245;-51
2021/12/13 07:45:54;;;;;;;27.17;12.03;;;;;;;5.45;100.00;102134.06;5009197;28;20225;-52
2021/12/13 07:48:24;;;;;;;24.00;11.23;;;;;;;5.45;100.00;102134.94;5008902;28;20228;-52
2021/12/13 07:51:05;;;;;;;26.00;11.63;;;;;;;5.47;100.00;102140.19;5008461;28;20275;-51
2021/12/13 07:53:39;;;;;;;25.37;13.17;;;;;;;5.45;100.00;102134.94;5004832;28;20280;-51
2021/12/13 07:56:06;;;;;;;24.70;12.13;;;;;;;5.48;100.00;102140.28;5010611;28;20229;-51
2021/12/13 07:58:35;;;;;;;22.70;11.47;;;;;;;5.47;100.00;102138.47;5009851;28;20279;-50
2021/12/13 08:01:17;;;;;;;25.43;11.13;;;;;;;5.55;100.00;102140.56;5007935;28;20233;-52
2021/12/13 08:03:45;;;;;;;20.63;11.57;;;;;;;5.53;100.00;102142.19;5006746;28;20229;-50
2021/12/13 08:06:12;;;;;;;20.87;11.43;;;;;;;5.64;100.00;102141.81;5006181;28;20287;-52
2021/12/13 08:08:46;;;;;;;22.03;10.73;;;;;;;5.61;100.00;102152.09;5006795;28;20665;-51
2021/12/13 08:11:13;;;;;;;32.17;19.23;;;;;;;5.71;100.00;102149.06;5006963;28;20312;-49
2021/12/13 08:13:39;;;;;;;24.63;13.73;;;;;;;5.70;100.00;102154.22;5015993;28;20255;-51
2021/12/13 08:16:08;;;;;;;24.80;12.77;;;;;;;5.70;100.00;102144.66;5011167;28;20228;-51
2021/12/13 08:18:40;;;;;;;20.27;10.77;;;;;;;5.74;100.00;102149.19;5010292;28;20233;-52
2021/12/13 08:21:10;;;;;;;20.70;10.90;;;;;;;5.78;100.00;102149.31;5007452;28;20229;-52
2021/12/13 08:23:42;;;;;;;17.53;11.60;;;;;;;5.78;100.00;102155.41;5012763;28;20673;-52
2021/12/13 08:26:11;;;;;;;27.93;11.13;;;;;;;5.82;100.00;102146.00;5002697;28;20768;-52
2021/12/13 08:28:40;;;;;;;22.90;10.87;;;;;;;5.85;100.00;102157.44;5003764;28;20260;-51
2021/12/13 08:31:09;;;;;;;24.17;11.83;;;;;;;5.93;100.00;102160.38;5002720;28;20372;-52
2021/12/13 08:33:39;;;;;;;17.67;10.50;;;;;;;5.92;100.00;102164.72;5016524;28;21963;-51
2021/12/13 08:36:10;;;;;;;17.97;9.67;;;;;;;5.99;100.00;102163.25;5007165;28;21589;-51
2021/12/13 08:38:40;;;;;;;19.23;9.87;;;;;;;6.03;100.00;102164.25;5008608;28;20241;-51
2021/12/13 08:41:18;;;;;;;14.87;9.00;;;;;;;6.07;100.00;102169.69;5016078;28;20299;-51
2021/12/13 08:43:50;;;;;;;23.70;10.67;;;;;;;6.03;100.00;102167.75;5020968;28;20279;-51
2021/12/13 08:46:28;;;;;;;19.77;9.03;;;;;;;6.05;100.00;102168.72;5020936;28;20233;-53
2021/12/13 08:48:56;;;;;;;20.43;10.53;;;;;;;6.14;100.00;102171.72;5019757;28;20236;-50
2021/12/13 08:51:27;;;;;;;19.00;11.20;;;;;;;6.17;100.00;102171.81;5012164;28;20245;-52
2021/12/13 08:54:05;;;;;;;18.30;11.03;;;;;;;6.10;100.00;102167.19;5010532;28;20272;-49
2021/12/13 08:56:33;;;;;;;21.07;10.77;;;;;;;6.08;100.00;102175.78;5004458;28;20252;-51
2021/12/13 08:59:05;;;;;;;19.60;10.77;;;;;;;6.21;100.00;102171.13;5011336;28;20733;-51
2021/12/13 09:01:41;;;;;;;18.07;10.50;;;;;;;6.13;100.00;102169.03;5010316;28;20633;-51
2021/12/13 09:04:10;;;;;;;18.57;10.30;;;;;;;6.18;100.00;102168.41;5009736;28;20225;-51
2021/12/13 09:06:37;;;;;;;18.43;10.90;;;;;;;6.15;100.00;102168.25;5009465;28;20233;-52
2021/12/13 09:09:11;;;;;;;19.70;10.50;;;;;;;6.20;100.00;102171.03;5005432;28;20225;-52
2021/12/13 09:11:41;;;;;;;15.20;9.77;;;;;;;6.13;100.00;102167.31;5009760;28;20801;-51
2021/12/13 09:14:15;;;;;;;24.63;10.20;;;;;;;6.15;100.00;102173.47;5002255;28;20225;-50
2021/12/13 09:16:52;;;;;;;17.40;9.30;;;;;;;6.09;100.00;102174.94;5023639;28;20900;-51
2021/12/13 09:19:24;;;;;;;14.83;9.67;;;;;;;6.17;100.00;102177.03;5023035;28;20630;-52
2021/12/13 09:21:55;;;;;;;17.07;8.83;;;;;;;6.09;100.00;102168.00;5015083;28;20237;-51
2021/12/13 09:24:28;;;;;;;14.70;8.53;;;;;;;6.12;100.00;102177.69;5010167;28;20233;-51
2021/12/13 09:26:57;;;;;;;11.23;8.53;;;;;;;6.22;100.00;102174.63;4999568;28;20229;-51
2021/12/13 09:29:24;;;;;;;15.00;8.33;;;;;;;6.18;100.00;102173.59;5001522;28;20256;-52
2021/12/13 09:31:52;;;;;;;17.53;8.70;;;;;;;6.19;100.00;102172.78;5006177;28;20309;-52
2021/12/13 09:34:21;;;;;;;15.87;8.60;;;;;;;6.13;100.00;102174.25;5008311;28;20729;-51
2021/12/13 09:36:50;;;;;;;12.17;8.17;;;;;;;6.13;100.00;102169.91;5010839;28;20764;-51
2021/12/13 09:39:22;;;;;;;14.47;8.63;;;;;;;6.19;100.00;102179.72;5010149;28;20240;-54
2021/12/13 09:41:53;;;;;;;17.00;8.27;;;;;;;6.21;100.00;102175.44;5009847;28;20265;-49
2021/12/13 09:44:29;;;;;;;14.07;8.27;;;;;;;6.18;100.00;102183.16;5006012;28;20245;-52
2021/12/13 09:47:01;;;;;;;13.80;9.00;;;;;;;6.21;100.00;102189.38;5006238;28;20253;-52
2021/12/13 09:49:34;;;;;;;14.93;9.80;;;;;;;6.17;100.00;102190.06;5006910;28;20366;-53
2021/12/13 09:52:05;;;;;;;14.67;8.27;;;;;;;6.15;100.00;102183.91;5010948;28;20307;-52
2021/12/13 09:54:38;;;;;;;14.33;9.20;;;;;;;6.19;100.00;102191.03;5006708;28;20261;-52
2021/12/13 09:57:08;;;;;;;15.23;8.90;;;;;;;6.17;100.00;102187.44;5006876;28;20293;-52
2021/12/13 09:59:38;;;;;;;16.77;9.27;;;;;;;6.16;100.00;102184.78;5007506;28;20253;-52
2021/12/13 10:02:10;;;;;;;17.27;9.43;;;;;;;6.21;100.00;102184.16;5008576;28;20269;-51
2021/12/13 10:04:41;;;;;;;14.83;9.23;;;;;;;6.30;100.00;102182.75;5007214;28;20299;-51
2021/12/13 10:07:10;;;;;;;16.33;9.13;;;;;;;6.35;100.00;102186.41;5010081;28;20240;-50
2021/12/13 10:09:41;;;;;;;14.80;8.63;;;;;;;6.37;100.00;102188.25;5009594;28;20229;-51
2021/12/13 10:12:13;;;;;;;16.17;9.40;;;;;;;6.41;100.00;102182.31;5009628;28;20245;-51
2021/12/13 10:14:41;;;;;;;17.20;10.23;;;;;;;6.51;100.00;102177.47;5024754;28;20225;-52
2021/12/13 10:17:11;;;;;;;16.20;9.03;;;;;;;6.53;100.00;102176.72;5029211;28;20264;-53
2021/12/13 10:19:41;;;;;;;13.73;9.10;;;;;;;6.57;100.00;102180.34;5024945;28;20233;-51
2021/12/13 10:22:18;;;;;;;19.97;10.40;;;;;;;6.65;100.00;102178.91;5028403;28;20233;-52
2021/12/13 10:24:50;;;;;;;15.20;9.23;;;;;;;6.68;100.00;102172.06;5023935;28;20233;-53
2021/12/13 10:27:17;;;;;;;15.57;10.13;;;;;;;6.74;100.00;102180.94;5024050;28;20229;-53
2021/12/13 10:29:48;;;;;;;13.73;9.23;;;;;;;6.75;100.00;102181.03;5021123;28;20821;-53
2021/12/13 10:32:17;;;;;;;18.13;9.10;;;;;;;6.78;100.00;102177.66;5013394;28;20725;-52
2021/12/13 10:34:48;;;;;;;12.40;7.03;;;;;;;6.81;100.00;102172.53;5018358;28;20251;-50
2021/12/13 10:37:18;;;;;;;21.27;10.10;;;;;;;6.80;100.00;102181.19;5015515;28;20228;-51
2021/12/13 10:39:50;;;;;;;14.47;8.40;;;;;;;6.84;100.00;102177.84;5006122;28;20260;-49
2021/12/13 10:42:20;;;;;;;16.87;9.13;;;;;;;6.87;100.00;102180.59;5002919;28;20295;-55
2021/12/13 10:44:47;;;;;;;16.03;10.93;;;;;;;6.83;100.00;102176.09;5006549;28;20233;-50
2021/12/13 10:47:17;;;;;;;16.20;9.17;;;;;;;6.84;100.00;102177.84;5004965;28;20295;-50
2021/12/13 10:49:48;;;;;;;15.70;9.57;;;;;;;6.83;100.00;102165.66;5004448;28;20717;-50
2021/12/13 10:52:17;;;;;;;12.10;8.43;;;;;;;6.86;100.00;102165.75;5003985;28;20245;-51
2021/12/13 10:54:51;;;;;;;15.47;9.73;;;;;;;6.91;100.00;102158.97;5004953;28;20296;-52
2021/12/13 10:57:20;;;;;;;15.33;10.10;;;;;;;6.96;100.00;102164.41;5005299;28;20239;-51
2021/12/13 10:59:48;;;;;;;12.83;9.97;;;;;;;6.96;100.00;102165.28;5006694;28;20226;-53
2021/12/13 11:02:18;;;;;;;16.30;10.90;;;;;;;7.00;100.00;102164.56;5008733;28;20245;-51
2021/12/13 11:04:51;;;;;;;14.73;9.17;;;;;;;7.01;100.00;102168.94;5009493;28;20233;-51
2021/12/13 11:07:18;;;;;;;19.20;10.17;;;;;;;7.07;100.00;102166.56;5005714;28;20279;-52
2021/12/13 11:09:47;;;;;;;13.20;9.10;;;;;;;7.11;100.00;102173.66;5010570;28;20233;-50
2021/12/13 11:12:17;;;;;;;13.30;8.87;;;;;;;7.16;100.00;102172.13;5006818;28;20249;-52
2021/12/13 11:14:45;;;;;;;11.63;8.60;;;;;;;7.27;100.00;102174.22;5024151;28;20237;-52
2021/12/13 11:17:15;;;;;;;17.80;8.77;;;;;;;7.23;100.00;102178.47;5015843;28;20237;-51
2021/12/13 11:19:45;;;;;;;10.47;8.40;;;;;;;7.28;100.00;102171.66;5008739;28;20267;-49
2021/12/13 11:22:17;;;;;;;12.97;8.57;;;;;;;7.26;100.00;102177.66;5007924;28;20272;-51
2021/12/13 11:24:48;;;;;;;13.20;8.10;;;;;;;7.29;100.00;102175.16;5009041;28;20299;-51
2021/12/13 11:27:16;;;;;;;14.67;9.57;;;;;;;7.25;100.00;102170.66;5004799;28;20233;-52
2021/12/13 11:29:44;;;;;;;12.73;9.23;;;;;;;7.23;100.00;102172.31;5004487;28;20233;-52
2021/12/13 11:32:45;;;;;;;12.97;8.70;;;;;;;7.33;100.00;102174.41;5019141;22;20619;-50